Terminal Aerodrome Forecast
Issued by NWS La Crosse, WI

Home | Current Version | Previous Version | Text Only | Print | Product List | Glossary On
Versions: 1 2 3 4 5 6 7 8 9 10 11 12 13 14 15 16 17 18 19 20 21 22 23 24 25 26 27 28 29 30 31 32 33 34 35 36 37 38 39 40 41 42 43 44 45 46 47 48
000
FTUS43 KARX 281244 AAA
TAFLSE
TAF AMD
KLSE 281244Z 2813/2912 00000KT P6SM SCT005 BKN070
      TEMPO 2814/2815 BKN005
     FM281500 18005KT P6SM BKN060
     FM282100 18008KT P6SM VCTS BKN060CB
     FM290300 18005KT P6SM BKN050=

USA.gov is the U.S. government's official web portal to all federal, state and local government web resources and services.